createdAt,value
2019-03-03T00:01:35.812Z,3.10
2019-03-03T00:04:06.854Z,3.10
2019-03-03T00:06:37.830Z,3.10
2019-03-03T00:09:09.295Z,3.00
2019-03-03T00:11:42.162Z,3.00
2019-03-03T00:14:13.189Z,2.90
2019-03-03T00:16:44.157Z,2.90
2019-03-03T00:19:15.115Z,2.90
2019-03-03T00:21:47.701Z,2.80
2019-03-03T00:24:18.654Z,2.80
2019-03-03T00:26:49.617Z,2.80
2019-03-03T00:29:20.575Z,2.80
2019-03-03T00:31:51.566Z,2.80
2019-03-03T00:34:22.523Z,2.80
2019-03-03T00:37:18.762Z,2.80
2019-03-03T00:40:17.749Z,2.80
2019-03-03T00:42:54.438Z,2.80
2019-03-03T00:45:44.306Z,2.70
2019-03-03T00:48:34.166Z,2.70
2019-03-03T00:51:36.144Z,2.80
2019-03-03T00:54:24.695Z,2.80
2019-03-03T00:57:07.258Z,2.90
2019-03-03T00:59:52.706Z,2.90
2019-03-03T01:02:40.042Z,2.90
2019-03-03T01:05:32.554Z,2.90
2019-03-03T01:08:37.594Z,3.00
2019-03-03T01:11:27.606Z,3.00
2019-03-03T01:14:19.746Z,3.00
2019-03-03T01:17:12.283Z,3.00
2019-03-03T01:20:02.176Z,3.00
2019-03-03T01:22:58.101Z,3.10
2019-03-03T01:25:29.102Z,3.10
2019-03-03T01:28:00.091Z,3.00
2019-03-03T01:33:01.093Z,3.00
2019-03-03T01:35:32.179Z,3.00
2019-03-03T01:38:03.142Z,2.90
2019-03-03T01:40:34.109Z,2.80
2019-03-03T01:43:05.219Z,2.70
2019-03-03T01:45:36.190Z,2.60
2019-03-03T01:48:07.187Z,2.40
2019-03-03T01:50:38.159Z,2.30
2019-03-03T01:53:09.110Z,2.20
2019-03-03T01:55:40.170Z,2.00
2019-03-03T01:58:11.140Z,1.90
2019-03-03T02:00:42.127Z,1.80
2019-03-03T02:03:13.098Z,1.80
2019-03-03T02:05:44.110Z,1.70
2019-03-03T02:08:15.061Z,1.60
2019-03-03T02:10:46.073Z,1.60
2019-03-03T02:13:17.134Z,1.60
2019-03-03T02:15:48.199Z,1.40
2019-03-03T02:18:19.155Z,1.30
2019-03-03T02:20:55.031Z,1.30
2019-03-03T02:23:25.974Z,1.20
2019-03-03T02:25:56.970Z,1.20
2019-03-03T02:30:58.294Z,1.20
2019-03-03T02:33:29.252Z,1.10
2019-03-03T02:36:01.352Z,1.10
2019-03-03T02:41:02.887Z,1.00
2019-03-03T02:43:39.524Z,1.00
2019-03-03T02:46:10.831Z,0.90
2019-03-03T02:48:41.829Z,0.90
2019-03-03T02:51:12.791Z,1.00
2019-03-03T02:56:13.871Z,1.10
2019-03-03T02:58:44.837Z,1.10
2019-03-03T03:01:20.498Z,1.10
2019-03-03T03:03:52.663Z,1.10
2019-03-03T03:06:31.999Z,1.10
2019-03-03T03:09:28.167Z,1.20
2019-03-03T03:12:33.128Z,1.30
2019-03-03T03:15:23.050Z,1.30
2019-03-03T03:18:12.919Z,1.30
2019-03-03T03:20:57.253Z,1.40
2019-03-03T03:23:40.448Z,1.50
2019-03-03T03:26:22.878Z,1.60
2019-03-03T03:29:11.587Z,1.70
2019-03-03T03:32:13.852Z,1.70
2019-03-03T03:34:53.119Z,1.70
2019-03-03T03:37:30.619Z,1.80
2019-03-03T03:40:19.507Z,1.80
2019-03-03T03:43:04.131Z,1.80
2019-03-03T03:49:16.707Z,1.90
2019-03-03T03:51:55.336Z,1.90
2019-03-03T03:54:40.767Z,1.90
2019-03-03T03:57:36.930Z,1.90
2019-03-03T04:00:30.438Z,2.00
2019-03-03T04:03:20.305Z,2.10
2019-03-03T04:06:16.022Z,2.10
2019-03-03T04:08:54.423Z,2.10
2019-03-03T04:11:30.534Z,2.20
2019-03-03T04:14:11.658Z,2.20
2019-03-03T04:16:51.582Z,2.20
2019-03-03T04:19:30.467Z,2.20
2019-03-03T04:22:26.124Z,2.10
2019-03-03T04:25:19.948Z,2.00
2019-03-03T04:28:15.902Z,2.00
2019-03-03T04:31:05.771Z,1.90
2019-03-03T04:34:01.834Z,1.90
2019-03-03T04:36:53.770Z,1.90
2019-03-03T04:39:43.681Z,2.00
2019-03-03T04:42:36.705Z,1.90
2019-03-03T04:45:15.371Z,1.90
2019-03-03T04:48:04.553Z,1.90
2019-03-03T04:53:40.588Z,1.80
2019-03-03T04:56:24.866Z,1.90
2019-03-03T04:59:23.777Z,1.90
2019-03-03T05:02:01.130Z,2.00
2019-03-03T05:04:40.290Z,2.00
2019-03-03T05:07:19.903Z,2.10
2019-03-03T05:10:08.494Z,2.20
2019-03-03T05:13:04.374Z,2.30
2019-03-03T05:16:06.385Z,2.30
2019-03-03T05:19:11.226Z,2.40
2019-03-03T05:21:42.254Z,2.50
2019-03-03T05:24:13.137Z,2.50
2019-03-03T05:26:44.034Z,2.70
2019-03-03T05:29:14.993Z,2.70
2019-03-03T05:31:45.913Z,2.80
2019-03-03T05:34:16.878Z,2.80
2019-03-03T05:36:47.855Z,3.00
2019-03-03T05:39:18.854Z,3.00
2019-03-03T05:41:49.813Z,3.10
2019-03-03T05:46:50.982Z,3.30
2019-03-03T05:49:21.942Z,3.30
2019-03-03T05:51:52.908Z,3.40
2019-03-03T05:54:23.904Z,3.40
2019-03-03T05:56:54.870Z,3.50
2019-03-03T05:59:27.239Z,3.60
2019-03-03T06:04:28.266Z,3.80
2019-03-03T06:06:59.226Z,3.80
2019-03-03T06:09:30.245Z,3.90
2019-03-03T06:12:01.210Z,4.00
2019-03-03T06:14:32.208Z,4.20
2019-03-03T06:17:03.198Z,4.20
2019-03-03T06:19:34.174Z,4.40
2019-03-03T06:22:05.178Z,4.50
2019-03-03T06:24:36.153Z,4.60
2019-03-03T06:29:39.821Z,4.60
2019-03-03T06:32:10.870Z,4.70
2019-03-03T06:34:41.864Z,4.70
2019-03-03T06:37:12.808Z,4.70
2019-03-03T06:39:43.846Z,4.80
2019-03-03T06:42:14.762Z,4.80
2019-03-03T06:44:45.829Z,4.80
2019-03-03T06:47:16.798Z,4.80
2019-03-03T06:49:47.798Z,4.90
2019-03-03T06:52:20.724Z,4.90
2019-03-03T06:54:52.319Z,4.90
2019-03-03T06:57:32.977Z,5.00
2019-03-03T07:02:37.601Z,5.00
2019-03-03T07:05:09.715Z,5.00
2019-03-03T07:07:41.050Z,5.10
2019-03-03T07:12:44.449Z,5.00
2019-03-03T07:15:16.888Z,5.00
2019-03-03T07:17:48.038Z,5.00
2019-03-03T07:20:20.313Z,5.00
2019-03-03T07:22:51.703Z,5.10
2019-03-03T07:25:22.630Z,5.10
2019-03-03T07:27:54.682Z,5.20
2019-03-03T07:30:25.648Z,5.20
2019-03-03T07:33:34.124Z,5.20
2019-03-03T07:36:05.129Z,5.50
2019-03-03T07:38:36.194Z,5.50
2019-03-03T07:46:07.610Z,5.60
2019-03-03T07:48:38.614Z,5.60
2019-03-03T07:51:09.715Z,5.60
2019-03-03T07:56:11.218Z,5.60
2019-03-03T07:58:42.310Z,5.60
2019-03-03T08:01:13.447Z,5.60
2019-03-03T08:03:44.872Z,5.70
2019-03-03T08:06:15.974Z,5.70
2019-03-03T08:08:48.034Z,5.80
2019-03-03T08:11:33.474Z,6.00
2019-03-03T08:14:04.838Z,6.10
2019-03-03T08:16:35.908Z,6.40
2019-03-03T08:21:47.990Z,6.80
2019-03-03T08:24:19.021Z,6.90
2019-03-03T08:26:50.034Z,7.10
2019-03-03T08:29:21.133Z,7.20
2019-03-03T08:31:52.105Z,7.30
2019-03-03T08:34:23.071Z,7.40
2019-03-03T08:36:54.109Z,7.60
2019-03-03T08:39:25.095Z,7.60
2019-03-03T08:42:02.388Z,7.40
2019-03-03T08:47:37.643Z,7.40
2019-03-03T08:50:22.686Z,7.50
2019-03-03T08:53:15.425Z,7.50
2019-03-03T08:56:14.521Z,7.70
2019-03-03T08:58:55.754Z,7.90
2019-03-03T09:01:51.394Z,7.90
2019-03-03T09:04:37.722Z,7.80
2019-03-03T09:07:27.582Z,7.90
2019-03-03T09:10:13.351Z,8.00
2019-03-03T09:12:56.703Z,8.20
2019-03-03T09:15:41.669Z,8.40
2019-03-03T09:18:49.810Z,8.50
2019-03-03T09:21:36.795Z,8.50
2019-03-03T09:24:38.858Z,8.60
2019-03-03T09:27:47.106Z,8.70
2019-03-03T09:30:43.258Z,8.70
2019-03-03T09:36:23.222Z,8.70
2019-03-03T09:39:16.034Z,8.70
2019-03-03T09:42:08.950Z,8.60
2019-03-03T09:44:48.639Z,8.50
2019-03-03T09:47:41.307Z,8.50
2019-03-03T09:50:26.490Z,8.60
2019-03-03T09:53:22.442Z,8.60
2019-03-03T09:56:17.914Z,8.70
2019-03-03T09:59:19.967Z,8.80
2019-03-03T10:04:47.786Z,9.00
2019-03-03T10:07:40.550Z,9.00
2019-03-03T10:10:16.258Z,9.10
2019-03-03T10:13:06.150Z,9.20
2019-03-03T10:15:54.154Z,9.20
2019-03-03T10:18:49.834Z,9.30
2019-03-03T10:21:40.509Z,9.40
2019-03-03T10:24:28.243Z,9.60
2019-03-03T10:27:24.362Z,10.00
2019-03-03T10:30:06.592Z,10.40
2019-03-03T10:33:02.617Z,10.50
2019-03-03T10:35:58.534Z,10.50
2019-03-03T10:38:42.018Z,10.20
2019-03-03T10:44:03.233Z,10.10
2019-03-03T10:46:44.578Z,10.00
2019-03-03T10:49:21.878Z,10.00
2019-03-03T10:52:09.861Z,10.00
2019-03-03T10:54:46.887Z,9.90
2019-03-03T10:57:35.574Z,9.90
2019-03-03T11:00:25.017Z,9.90
2019-03-03T11:03:07.239Z,9.90
2019-03-03T11:05:56.139Z,9.90
2019-03-03T11:11:35.585Z,10.10
2019-03-03T11:14:17.550Z,10.20
2019-03-03T11:17:10.459Z,10.30
2019-03-03T11:19:54.645Z,10.40
2019-03-03T11:22:36.378Z,10.50
2019-03-03T11:25:29.371Z,10.70
2019-03-03T11:28:23.577Z,10.80
2019-03-03T11:31:26.534Z,11.00
2019-03-03T11:34:11.158Z,11.10
2019-03-03T11:36:53.433Z,11.40
2019-03-03T11:39:44.630Z,11.40
2019-03-03T11:42:27.476Z,11.40
2019-03-03T11:45:06.116Z,11.60
2019-03-03T11:50:53.657Z,11.50
2019-03-03T11:53:55.791Z,11.30
2019-03-03T11:59:43.681Z,11.00
2019-03-03T12:02:34.009Z,11.10
2019-03-03T12:05:15.358Z,11.10
2019-03-03T12:07:55.998Z,11.10
2019-03-03T12:13:19.727Z,11.10
2019-03-03T12:16:04.794Z,11.20
2019-03-03T12:21:30.218Z,11.20
2019-03-03T12:24:18.962Z,11.10
2019-03-03T12:26:56.306Z,11.00
2019-03-03T12:29:49.278Z,10.90
2019-03-03T12:32:29.505Z,10.90
2019-03-03T12:35:06.562Z,10.90
2019-03-03T12:40:41.081Z,11.00
2019-03-03T12:43:33.910Z,11.10
2019-03-03T12:49:29.246Z,11.30
2019-03-03T12:52:19.257Z,11.30
2019-03-03T12:58:04.510Z,11.20
2019-03-03T13:01:09.997Z,11.10
2019-03-03T13:03:59.898Z,11.00
2019-03-03T13:06:55.822Z,11.00
2019-03-03T13:09:45.762Z,10.80
2019-03-03T13:12:25.384Z,10.60
2019-03-03T13:15:11.969Z,10.60
2019-03-03T13:18:00.824Z,10.60
2019-03-03T13:21:06.431Z,10.60
2019-03-03T13:23:49.747Z,10.60
2019-03-03T13:26:58.062Z,10.60
2019-03-03T13:30:06.328Z,10.60
2019-03-03T13:32:53.483Z,10.60
2019-03-03T13:35:39.698Z,10.60
2019-03-03T13:38:18.486Z,10.40
2019-03-03T13:41:14.583Z,10.30
2019-03-03T13:43:45.618Z,10.20
2019-03-03T13:46:16.718Z,10.10
2019-03-03T13:48:47.792Z,10.00
2019-03-03T13:53:48.962Z,10.00
2019-03-03T13:58:50.138Z,9.90
2019-03-03T14:01:21.235Z,9.80
2019-03-03T14:03:52.312Z,9.80
2019-03-03T14:06:23.419Z,9.70
2019-03-03T14:08:54.370Z,9.70
2019-03-03T14:11:31.726Z,9.60
2019-03-03T14:14:02.749Z,9.60
2019-03-03T14:16:33.710Z,9.50
2019-03-03T14:19:04.797Z,9.50
2019-03-03T14:21:35.874Z,9.60
2019-03-03T14:24:07.086Z,9.50
2019-03-03T14:26:38.214Z,9.60
2019-03-03T14:29:09.512Z,9.50
2019-03-03T14:31:40.482Z,9.60
2019-03-03T14:34:11.495Z,9.50
2019-03-03T14:36:42.503Z,9.50
2019-03-03T14:41:43.938Z,9.40
2019-03-03T14:44:14.934Z,9.40
2019-03-03T14:46:45.862Z,9.40
2019-03-03T14:51:48.119Z,9.30
2019-03-03T14:54:19.117Z,9.30
2019-03-03T14:56:50.090Z,9.40
2019-03-03T14:59:20.966Z,9.30
2019-03-03T15:01:51.986Z,9.30
2019-03-03T15:04:22.946Z,9.30
2019-03-03T15:06:53.942Z,9.30
2019-03-03T15:11:55.575Z,9.30
2019-03-03T15:14:26.534Z,9.30
2019-03-03T15:16:57.532Z,9.20
2019-03-03T15:19:28.494Z,9.20
2019-03-03T15:21:59.419Z,9.20
2019-03-03T15:24:30.450Z,9.20
2019-03-03T15:27:01.510Z,9.10
2019-03-03T15:29:32.539Z,9.10
2019-03-03T15:32:03.526Z,9.10
2019-03-03T15:34:35.559Z,9.10
2019-03-03T15:37:08.122Z,9.00
2019-03-03T15:39:39.010Z,9.00
2019-03-03T15:44:40.123Z,9.00
2019-03-03T15:47:11.115Z,9.00
2019-03-03T15:49:42.078Z,8.90
2019-03-03T15:52:13.078Z,8.90
2019-03-03T15:57:17.502Z,9.00
2019-03-03T15:59:49.449Z,9.00
2019-03-03T16:04:54.618Z,9.00
2019-03-03T16:07:29.834Z,8.90
2019-03-03T16:10:01.467Z,8.90
2019-03-03T16:12:32.606Z,8.90
2019-03-03T16:15:03.902Z,8.90
2019-03-03T16:17:34.925Z,8.80
2019-03-03T16:20:11.079Z,8.80
2019-03-03T16:22:43.071Z,8.80
2019-03-03T16:25:15.012Z,8.80
2019-03-03T16:27:46.042Z,8.80
2019-03-03T16:30:18.582Z,8.80
2019-03-03T16:32:49.912Z,8.70
2019-03-03T16:35:21.322Z,8.70
2019-03-03T16:37:53.574Z,8.70
2019-03-03T16:40:24.658Z,8.70
2019-03-03T16:42:55.642Z,8.70
2019-03-03T16:45:26.730Z,8.70
2019-03-03T16:47:58.234Z,8.70
2019-03-03T16:50:30.994Z,8.70
2019-03-03T16:53:02.258Z,8.70
2019-03-03T16:55:33.862Z,8.70
2019-03-03T16:58:04.945Z,8.60
2019-03-03T17:00:36.004Z,8.70
2019-03-03T17:03:10.379Z,8.70
2019-03-03T17:05:41.778Z,8.70
2019-03-03T17:08:12.874Z,8.70
2019-03-03T17:10:43.858Z,8.70
2019-03-03T17:13:14.838Z,8.60
2019-03-03T17:15:49.509Z,8.60
2019-03-03T17:18:20.882Z,8.60
2019-03-03T17:20:51.974Z,8.50
2019-03-03T17:23:23.090Z,8.60
2019-03-03T17:25:54.277Z,8.60
2019-03-03T17:28:25.283Z,8.70
2019-03-03T17:30:56.258Z,8.70
2019-03-03T17:33:27.466Z,8.80
2019-03-03T17:35:58.550Z,8.80
2019-03-03T17:38:29.517Z,8.80
2019-03-03T17:41:00.842Z,8.80
2019-03-03T17:46:02.034Z,8.80
2019-03-03T17:48:33.026Z,8.80
2019-03-03T17:51:03.955Z,8.80
2019-03-03T17:53:35.298Z,8.80
2019-03-03T17:56:06.319Z,8.80
2019-03-03T18:01:08.607Z,8.80
2019-03-03T18:03:39.607Z,8.70
2019-03-03T18:06:10.683Z,8.70
2019-03-03T18:08:41.765Z,8.70
2019-03-03T18:26:13.871Z,8.60
2019-03-03T18:28:44.877Z,8.60
2019-03-03T18:31:15.846Z,8.60
2019-03-03T18:33:46.831Z,8.60
2019-03-03T18:36:17.842Z,8.60
2019-03-03T18:38:48.826Z,8.60
2019-03-03T18:41:19.786Z,8.60
2019-03-03T18:43:50.766Z,8.70
2019-03-03T18:46:22.874Z,8.60
2019-03-03T18:48:53.886Z,8.70
2019-03-03T18:51:24.878Z,8.60
2019-03-03T18:53:56.555Z,8.60
2019-03-03T18:56:27.778Z,8.60
2019-03-03T18:58:58.760Z,8.70
2019-03-03T19:01:29.762Z,8.60
2019-03-03T19:04:00.885Z,8.60
2019-03-03T19:06:32.102Z,8.60
2019-03-03T19:09:03.350Z,8.70
2019-03-03T19:11:36.190Z,8.60
2019-03-03T19:14:07.658Z,8.60
2019-03-03T19:16:38.714Z,8.60
2019-03-03T19:19:10.110Z,8.60
2019-03-03T19:21:42.370Z,8.60
2019-03-03T19:24:13.490Z,8.60
2019-03-03T19:26:45.771Z,8.60
2019-03-03T19:29:17.021Z,8.70
2019-03-03T19:31:48.182Z,8.60
2019-03-03T19:34:23.587Z,8.70
2019-03-03T19:36:55.134Z,8.70
2019-03-03T19:39:26.122Z,8.70
2019-03-03T19:41:57.158Z,8.80
2019-03-03T19:44:28.338Z,8.80
2019-03-03T19:46:59.294Z,8.80
2019-03-03T19:49:30.286Z,8.80
2019-03-03T19:52:01.242Z,8.80
2019-03-03T19:54:33.332Z,8.80
2019-03-03T19:57:04.490Z,8.80
2019-03-03T19:59:35.546Z,8.80
2019-03-03T20:02:06.556Z,8.80
2019-03-03T20:04:37.582Z,8.90
2019-03-03T20:07:08.487Z,8.90
2019-03-03T20:09:40.003Z,8.80
2019-03-03T20:12:11.242Z,8.80
2019-03-03T20:14:42.200Z,8.80
2019-03-03T20:17:13.694Z,8.80
2019-03-03T20:19:45.269Z,8.80
2019-03-03T20:22:18.028Z,8.80
2019-03-03T20:24:49.611Z,8.80
2019-03-03T20:27:20.998Z,8.90
2019-03-03T20:29:52.054Z,8.90
2019-03-03T20:32:23.662Z,8.80
2019-03-03T20:34:54.646Z,8.90
2019-03-03T20:37:25.738Z,8.90
2019-03-03T20:39:57.426Z,8.90
2019-03-03T20:42:28.454Z,8.90
2019-03-03T20:44:59.546Z,8.90
2019-03-03T20:47:31.013Z,8.90
2019-03-03T20:50:02.195Z,9.00
2019-03-03T20:52:34.718Z,8.90
2019-03-03T20:55:07.324Z,8.90
2019-03-03T20:57:38.286Z,8.90
2019-03-03T21:00:16.351Z,8.90
2019-03-03T21:02:47.769Z,8.90
2019-03-03T21:07:51.786Z,8.90
2019-03-03T21:10:35.206Z,8.80
2019-03-03T21:13:06.557Z,8.80
2019-03-03T21:15:38.125Z,8.80
2019-03-03T21:20:40.186Z,8.90
2019-03-03T21:23:13.209Z,8.90
2019-03-03T21:25:44.217Z,8.80
2019-03-03T21:28:15.398Z,8.90
2019-03-03T21:30:46.574Z,8.90
2019-03-03T21:33:18.310Z,8.80
2019-03-03T21:35:49.257Z,8.80
2019-03-03T21:38:39.151Z,8.90
2019-03-03T21:43:54.725Z,8.90
2019-03-03T21:46:25.610Z,8.90
2019-03-03T21:48:56.803Z,8.90
2019-03-03T21:51:27.922Z,8.90
2019-03-03T21:53:58.946Z,8.90
2019-03-03T21:56:30.068Z,8.90
2019-03-03T21:59:01.098Z,8.90
2019-03-03T22:04:02.310Z,8.90
2019-03-03T22:06:33.783Z,8.90
2019-03-03T22:09:07.434Z,8.90
2019-03-03T22:11:40.019Z,8.80
2019-03-03T22:14:11.645Z,8.90
2019-03-03T22:16:42.534Z,8.90
2019-03-03T22:19:13.445Z,9.00
2019-03-03T22:21:44.330Z,8.90
2019-03-03T22:26:45.430Z,8.90
2019-03-03T22:29:16.445Z,8.90
2019-03-03T22:31:47.694Z,9.00
2019-03-03T22:34:18.654Z,8.90
2019-03-03T22:36:49.642Z,8.90
2019-03-03T22:44:20.723Z,8.90
2019-03-03T22:46:51.670Z,8.90
2019-03-03T22:49:22.586Z,8.90
2019-03-03T22:56:53.790Z,8.80
2019-03-03T22:59:25.028Z,8.80
2019-03-03T23:01:56.034Z,8.80
2019-03-03T23:07:54.666Z,8.80
2019-03-03T23:11:20.702Z,8.90
2019-03-03T23:14:29.119Z,8.80
2019-03-03T23:17:33.634Z,8.80
2019-03-03T23:20:43.894Z,8.80
2019-03-03T23:24:04.858Z,8.80
2019-03-03T23:26:35.894Z,8.80
2019-03-03T23:29:07.933Z,8.80
2019-03-03T23:31:38.890Z,8.80
2019-03-03T23:34:11.971Z,8.80
2019-03-03T23:36:42.446Z,8.80
2019-03-03T23:39:13.426Z,8.80
2019-03-03T23:41:44.311Z,8.80
2019-03-03T23:44:15.290Z,8.80
2019-03-03T23:46:46.167Z,8.80
2019-03-03T23:49:17.209Z,8.80
2019-03-03T23:51:48.097Z,8.80
2019-03-03T23:54:19.001Z,8.90
2019-03-03T23:56:49.970Z,8.80
2019-03-03T23:59:20.949Z,8.80
